sensor_id;sensor_type;location;lat;lon;timestamp;P1;durP1;ratioP1;P2;durP2;ratioP2
56141;SDS011;42018;48.588;10.836;2023-09-07T00:02:31;4.25;;;2.20;;
56141;SDS011;42018;48.588;10.836;2023-09-07T00:05:16;4.18;;;2.60;;
56141;SDS011;42018;48.588;10.836;2023-09-07T00:08:02;4.07;;;2.30;;
56141;SDS011;42018;48.588;10.836;2023-09-07T00:10:47;3.55;;;2.10;;
56141;SDS011;42018;48.588;10.836;2023-09-07T00:13:33;3.80;;;2.28;;
56141;SDS011;42018;48.588;10.836;2023-09-07T00:16:19;4.13;;;2.00;;
56141;SDS011;42018;48.588;10.836;2023-09-07T00:19:04;4.25;;;2.53;;
56141;SDS011;42018;48.588;10.836;2023-09-07T00:21:50;3.90;;;2.30;;
56141;SDS011;42018;48.588;10.836;2023-09-07T00:24:36;3.60;;;2.22;;
56141;SDS011;42018;48.588;10.836;2023-09-07T00:27:22;3.92;;;2.53;;
56141;SDS011;42018;48.588;10.836;2023-09-07T00:30:07;3.45;;;2.03;;
56141;SDS011;42018;48.588;10.836;2023-09-07T00:32:54;5.28;;;2.70;;
56141;SDS011;42018;48.588;10.836;2023-09-07T00:35:40;4.07;;;2.60;;
56141;SDS011;42018;48.588;10.836;2023-09-07T00:38:25;4.40;;;2.78;;
56141;SDS011;42018;48.588;10.836;2023-09-07T00:41:12;4.00;;;2.50;;
56141;SDS011;42018;48.588;10.836;2023-09-07T00:43:58;4.72;;;2.47;;
56141;SDS011;42018;48.588;10.836;2023-09-07T00:46:44;3.97;;;2.60;;
56141;SDS011;42018;48.588;10.836;2023-09-07T00:49:32;4.43;;;2.75;;
56141;SDS011;42018;48.588;10.836;2023-09-07T00:52:18;4.63;;;3.00;;
56141;SDS011;42018;48.588;10.836;2023-09-07T00:55:05;4.20;;;2.58;;
56141;SDS011;42018;48.588;10.836;2023-09-07T00:57:51;4.10;;;2.70;;
56141;SDS011;42018;48.588;10.836;2023-09-07T01:00:36;4.68;;;2.67;;
56141;SDS011;42018;48.588;10.836;2023-09-07T01:03:21;3.97;;;2.63;;
56141;SDS011;42018;48.588;10.836;2023-09-07T01:06:15;3.90;;;2.60;;
56141;SDS011;42018;48.588;10.836;2023-09-07T01:09:15;4.70;;;2.90;;
56141;SDS011;42018;48.588;10.836;2023-09-07T01:12:04;4.15;;;2.38;;
56141;SDS011;42018;48.588;10.836;2023-09-07T01:14:50;3.92;;;2.63;;
56141;SDS011;42018;48.588;10.836;2023-09-07T01:17:35;5.35;;;2.80;;
56141;SDS011;42018;48.588;10.836;2023-09-07T01:20:21;3.90;;;2.63;;
56141;SDS011;42018;48.588;10.836;2023-09-07T01:23:08;3.83;;;2.53;;
56141;SDS011;42018;48.588;10.836;2023-09-07T01:25:55;3.80;;;2.67;;
56141;SDS011;42018;48.588;10.836;2023-09-07T01:28:40;4.28;;;2.85;;
56141;SDS011;42018;48.588;10.836;2023-09-07T01:31:26;4.03;;;2.53;;
56141;SDS011;42018;48.588;10.836;2023-09-07T01:34:12;4.55;;;2.78;;
56141;SDS011;42018;48.588;10.836;2023-09-07T01:36:57;5.03;;;2.90;;
56141;SDS011;42018;48.588;10.836;2023-09-07T01:39:43;4.25;;;2.80;;
56141;SDS011;42018;48.588;10.836;2023-09-07T01:42:28;3.80;;;2.40;;
56141;SDS011;42018;48.588;10.836;2023-09-07T01:45:13;4.53;;;2.72;;
56141;SDS011;42018;48.588;10.836;2023-09-07T01:47:59;4.00;;;2.67;;
56141;SDS011;42018;48.588;10.836;2023-09-07T01:50:44;5.10;;;2.67;;
56141;SDS011;42018;48.588;10.836;2023-09-07T01:53:30;3.78;;;2.30;;
56141;SDS011;42018;48.588;10.836;2023-09-07T01:56:18;4.15;;;2.75;;
56141;SDS011;42018;48.588;10.836;2023-09-07T01:59:03;5.32;;;2.63;;
56141;SDS011;42018;48.588;10.836;2023-09-07T02:01:49;4.25;;;2.80;;
56141;SDS011;42018;48.588;10.836;2023-09-07T02:04:34;5.70;;;2.75;;
56141;SDS011;42018;48.588;10.836;2023-09-07T02:07:19;4.35;;;2.90;;
56141;SDS011;42018;48.588;10.836;2023-09-07T02:10:05;4.90;;;2.67;;
56141;SDS011;42018;48.588;10.836;2023-09-07T02:12:51;4.18;;;2.72;;
56141;SDS011;42018;48.588;10.836;2023-09-07T02:15:37;4.18;;;2.90;;
56141;SDS011;42018;48.588;10.836;2023-09-07T02:18:23;3.88;;;2.70;;
56141;SDS011;42018;48.588;10.836;2023-09-07T02:21:09;4.55;;;2.78;;
56141;SDS011;42018;48.588;10.836;2023-09-07T02:23:55;5.75;;;2.70;;
56141;SDS011;42018;48.588;10.836;2023-09-07T02:26:40;4.10;;;2.75;;
56141;SDS011;42018;48.588;10.836;2023-09-07T02:29:30;4.20;;;2.80;;
56141;SDS011;42018;48.588;10.836;2023-09-07T02:32:15;4.53;;;2.80;;
56141;SDS011;42018;48.588;10.836;2023-09-07T02:35:00;3.92;;;2.70;;
56141;SDS011;42018;48.588;10.836;2023-09-07T02:37:46;4.38;;;2.80;;
56141;SDS011;42018;48.588;10.836;2023-09-07T02:40:31;4.40;;;2.97;;
56141;SDS011;42018;48.588;10.836;2023-09-07T02:43:16;4.10;;;2.90;;
56141;SDS011;42018;48.588;10.836;2023-09-07T02:46:02;4.25;;;2.72;;
56141;SDS011;42018;48.588;10.836;2023-09-07T02:48:47;4.25;;;2.55;;
56141;SDS011;42018;48.588;10.836;2023-09-07T02:51:32;3.92;;;2.63;;
56141;SDS011;42018;48.588;10.836;2023-09-07T02:54:18;4.18;;;2.80;;
56141;SDS011;42018;48.588;10.836;2023-09-07T02:57:03;3.75;;;2.50;;
56141;SDS011;42018;48.588;10.836;2023-09-07T02:59:49;4.50;;;2.88;;
56141;SDS011;42018;48.588;10.836;2023-09-07T03:02:35;4.07;;;2.80;;
56141;SDS011;42018;48.588;10.836;2023-09-07T03:05:26;4.45;;;2.80;;
56141;SDS011;42018;48.588;10.836;2023-09-07T03:08:13;3.85;;;2.60;;
56141;SDS011;42018;48.588;10.836;2023-09-07T03:11:04;3.63;;;2.50;;
56141;SDS011;42018;48.588;10.836;2023-09-07T03:13:49;4.22;;;2.67;;
56141;SDS011;42018;48.588;10.836;2023-09-07T03:16:35;4.00;;;2.50;;
56141;SDS011;42018;48.588;10.836;2023-09-07T03:19:20;3.95;;;2.50;;
56141;SDS011;42018;48.588;10.836;2023-09-07T03:22:05;4.25;;;2.90;;
56141;SDS011;42018;48.588;10.836;2023-09-07T03:24:51;4.40;;;2.67;;
56141;SDS011;42018;48.588;10.836;2023-09-07T03:27:37;4.60;;;2.97;;
56141;SDS011;42018;48.588;10.836;2023-09-07T03:30:23;4.50;;;2.90;;
56141;SDS011;42018;48.588;10.836;2023-09-07T03:33:08;4.10;;;2.78;;
56141;SDS011;42018;48.588;10.836;2023-09-07T03:35:57;3.97;;;2.67;;
56141;SDS011;42018;48.588;10.836;2023-09-07T03:41:29;4.47;;;3.00;;
56141;SDS011;42018;48.588;10.836;2023-09-07T03:44:15;4.10;;;2.85;;
56141;SDS011;42018;48.588;10.836;2023-09-07T03:47:01;4.15;;;2.78;;
56141;SDS011;42018;48.588;10.836;2023-09-07T03:49:47;4.28;;;2.80;;
56141;SDS011;42018;48.588;10.836;2023-09-07T03:52:32;4.45;;;3.10;;
56141;SDS011;42018;48.588;10.836;2023-09-07T03:55:18;4.20;;;2.90;;
56141;SDS011;42018;48.588;10.836;2023-09-07T03:58:04;3.97;;;2.80;;
56141;SDS011;42018;48.588;10.836;2023-09-07T04:00:49;4.65;;;3.20;;
56141;SDS011;42018;48.588;10.836;2023-09-07T04:03:35;4.40;;;2.80;;
56141;SDS011;42018;48.588;10.836;2023-09-07T04:06:21;4.32;;;3.00;;
56141;SDS011;42018;48.588;10.836;2023-09-07T04:09:09;4.15;;;2.53;;
56141;SDS011;42018;48.588;10.836;2023-09-07T04:11:54;4.30;;;3.10;;
56141;SDS011;42018;48.588;10.836;2023-09-07T04:14:40;4.22;;;3.03;;
56141;SDS011;42018;48.588;10.836;2023-09-07T04:17:26;3.72;;;2.67;;
56141;SDS011;42018;48.588;10.836;2023-09-07T04:20:12;4.30;;;2.90;;
56141;SDS011;42018;48.588;10.836;2023-09-07T04:22:58;3.97;;;2.70;;
56141;SDS011;42018;48.588;10.836;2023-09-07T04:25:43;4.93;;;2.70;;
56141;SDS011;42018;48.588;10.836;2023-09-07T04:28:29;4.05;;;2.78;;
56141;SDS011;42018;48.588;10.836;2023-09-07T04:31:15;5.28;;;3.00;;
56141;SDS011;42018;48.588;10.836;2023-09-07T04:34:00;4.20;;;2.78;;
56141;SDS011;42018;48.588;10.836;2023-09-07T04:36:48;4.65;;;3.10;;
56141;SDS011;42018;48.588;10.836;2023-09-07T04:39:33;4.40;;;2.63;;
56141;SDS011;42018;48.588;10.836;2023-09-07T04:42:22;4.00;;;2.90;;
56141;SDS011;42018;48.588;10.836;2023-09-07T04:45:08;5.40;;;2.92;;
56141;SDS011;42018;48.588;10.836;2023-09-07T04:47:54;4.00;;;2.88;;
56141;SDS011;42018;48.588;10.836;2023-09-07T04:50:39;4.32;;;2.90;;
56141;SDS011;42018;48.588;10.836;2023-09-07T04:53:25;4.22;;;2.88;;
56141;SDS011;42018;48.588;10.836;2023-09-07T04:56:11;4.45;;;3.20;;
56141;SDS011;42018;48.588;10.836;2023-09-07T04:58:57;4.65;;;2.97;;
56141;SDS011;42018;48.588;10.836;2023-09-07T05:01:43;4.15;;;2.80;;
56141;SDS011;42018;48.588;10.836;2023-09-07T05:04:28;5.07;;;3.25;;
56141;SDS011;42018;48.588;10.836;2023-09-07T05:07:15;4.70;;;2.83;;
56141;SDS011;42018;48.588;10.836;2023-09-07T05:10:01;5.45;;;3.10;;
56141;SDS011;42018;48.588;10.836;2023-09-07T05:12:46;4.50;;;3.00;;
56141;SDS011;42018;48.588;10.836;2023-09-07T05:15:32;4.78;;;2.90;;
56141;SDS011;42018;48.588;10.836;2023-09-07T05:18:18;5.13;;;2.90;;
56141;SDS011;42018;48.588;10.836;2023-09-07T05:21:10;5.70;;;3.08;;
56141;SDS011;42018;48.588;10.836;2023-09-07T05:23:57;5.38;;;2.95;;
56141;SDS011;42018;48.588;10.836;2023-09-07T05:26:42;5.03;;;2.90;;
56141;SDS011;42018;48.588;10.836;2023-09-07T05:29:28;5.28;;;3.03;;
56141;SDS011;42018;48.588;10.836;2023-09-07T05:32:14;4.60;;;3.10;;
56141;SDS011;42018;48.588;10.836;2023-09-07T05:34:59;4.35;;;2.75;;
56141;SDS011;42018;48.588;10.836;2023-09-07T05:37:45;5.50;;;2.90;;
56141;SDS011;42018;48.588;10.836;2023-09-07T05:40:40;4.88;;;3.03;;
56141;SDS011;42018;48.588;10.836;2023-09-07T05:43:27;4.25;;;3.28;;
56141;SDS011;42018;48.588;10.836;2023-09-07T05:46:13;4.30;;;2.90;;
56141;SDS011;42018;48.588;10.836;2023-09-07T05:48:58;4.78;;;3.28;;
56141;SDS011;42018;48.588;10.836;2023-09-07T05:51:44;4.65;;;3.10;;
56141;SDS011;42018;48.588;10.836;2023-09-07T05:54:29;4.95;;;3.15;;
56141;SDS011;42018;48.588;10.836;2023-09-07T05:57:15;4.40;;;3.33;;
56141;SDS011;42018;48.588;10.836;2023-09-07T06:00:00;4.53;;;3.33;;
56141;SDS011;42018;48.588;10.836;2023-09-07T06:02:46;5.38;;;3.63;;
56141;SDS011;42018;48.588;10.836;2023-09-07T06:05:33;5.03;;;3.50;;
56141;SDS011;42018;48.588;10.836;2023-09-07T06:08:20;4.63;;;3.65;;
56141;SDS011;42018;48.588;10.836;2023-09-07T06:11:06;4.57;;;3.25;;
56141;SDS011;42018;48.588;10.836;2023-09-07T06:13:51;7.75;;;3.33;;
56141;SDS011;42018;48.588;10.836;2023-09-07T06:16:37;5.22;;;3.33;;
56141;SDS011;42018;48.588;10.836;2023-09-07T06:19:22;3.95;;;2.72;;
56141;SDS011;42018;48.588;10.836;2023-09-07T06:22:08;4.95;;;3.58;;
56141;SDS011;42018;48.588;10.836;2023-09-07T06:24:54;5.40;;;3.88;;
56141;SDS011;42018;48.588;10.836;2023-09-07T06:27:39;4.78;;;3.15;;
56141;SDS011;42018;48.588;10.836;2023-09-07T06:30:25;5.88;;;3.58;;
56141;SDS011;42018;48.588;10.836;2023-09-07T06:33:10;4.68;;;3.50;;
56141;SDS011;42018;48.588;10.836;2023-09-07T06:35:59;5.25;;;3.40;;
56141;SDS011;42018;48.588;10.836;2023-09-07T06:38:47;5.25;;;3.40;;
56141;SDS011;42018;48.588;10.836;2023-09-07T06:41:33;4.97;;;3.47;;
56141;SDS011;42018;48.588;10.836;2023-09-07T06:44:18;4.95;;;3.17;;
56141;SDS011;42018;48.588;10.836;2023-09-07T06:47:04;4.93;;;3.10;;
56141;SDS011;42018;48.588;10.836;2023-09-07T06:49:50;5.80;;;3.22;;
56141;SDS011;42018;48.588;10.836;2023-09-07T06:52:36;5.00;;;2.95;;
56141;SDS011;42018;48.588;10.836;2023-09-07T06:55:21;4.13;;;3.03;;
56141;SDS011;42018;48.588;10.836;2023-09-07T06:58:07;4.60;;;2.95;;
56141;SDS011;42018;48.588;10.836;2023-09-07T07:00:56;4.45;;;2.95;;
56141;SDS011;42018;48.588;10.836;2023-09-07T07:03:43;4.53;;;3.00;;
56141;SDS011;42018;48.588;10.836;2023-09-07T07:06:28;5.32;;;2.95;;
56141;SDS011;42018;48.588;10.836;2023-09-07T07:09:14;4.80;;;3.10;;
56141;SDS011;42018;48.588;10.836;2023-09-07T07:12:00;4.43;;;2.90;;
56141;SDS011;42018;48.588;10.836;2023-09-07T07:14:48;4.72;;;3.10;;
56141;SDS011;42018;48.588;10.836;2023-09-07T07:17:34;4.03;;;2.85;;
56141;SDS011;42018;48.588;10.836;2023-09-07T07:20:19;4.75;;;2.97;;
56141;SDS011;42018;48.588;10.836;2023-09-07T07:23:05;4.65;;;2.70;;
56141;SDS011;42018;48.588;10.836;2023-09-07T07:25:53;4.47;;;2.80;;
56141;SDS011;42018;48.588;10.836;2023-09-07T07:28:41;4.15;;;2.90;;
56141;SDS011;42018;48.588;10.836;2023-09-07T07:31:27;4.20;;;2.60;;
56141;SDS011;42018;48.588;10.836;2023-09-07T07:34:13;5.07;;;2.58;;
56141;SDS011;42018;48.588;10.836;2023-09-07T07:36:58;5.70;;;2.85;;
56141;SDS011;42018;48.588;10.836;2023-09-07T07:39:44;4.03;;;2.53;;
56141;SDS011;42018;48.588;10.836;2023-09-07T07:42:29;4.63;;;2.78;;
56141;SDS011;42018;48.588;10.836;2023-09-07T07:45:15;4.88;;;2.70;;
56141;SDS011;42018;48.588;10.836;2023-09-07T07:48:04;5.20;;;2.53;;
56141;SDS011;42018;48.588;10.836;2023-09-07T07:50:52;3.80;;;2.42;;
56141;SDS011;42018;48.588;10.836;2023-09-07T07:53:38;5.53;;;2.65;;
56141;SDS011;42018;48.588;10.836;2023-09-07T07:56:26;3.83;;;2.45;;
56141;SDS011;42018;48.588;10.836;2023-09-07T07:59:11;4.93;;;2.47;;
56141;SDS011;42018;48.588;10.836;2023-09-07T08:01:57;5.15;;;2.92;;
56141;SDS011;42018;48.588;10.836;2023-09-07T08:04:43;4.68;;;2.53;;
56141;SDS011;42018;48.588;10.836;2023-09-07T08:07:28;5.07;;;2.70;;
56141;SDS011;42018;48.588;10.836;2023-09-07T08:10:14;4.35;;;2.70;;
56141;SDS011;42018;48.588;10.836;2023-09-07T08:12:59;5.35;;;2.53;;
56141;SDS011;42018;48.588;10.836;2023-09-07T08:15:45;3.90;;;2.47;;
56141;SDS011;42018;48.588;10.836;2023-09-07T08:18:33;4.22;;;2.60;;
56141;SDS011;42018;48.588;10.836;2023-09-07T08:21:19;4.82;;;2.60;;
56141;SDS011;42018;48.588;10.836;2023-09-07T08:24:04;4.50;;;2.53;;
56141;SDS011;42018;48.588;10.836;2023-09-07T08:26:50;4.20;;;2.70;;
56141;SDS011;42018;48.588;10.836;2023-09-07T08:29:39;5.05;;;2.78;;
56141;SDS011;42018;48.588;10.836;2023-09-07T08:32:24;5.38;;;2.65;;
56141;SDS011;42018;48.588;10.836;2023-09-07T08:35:10;5.53;;;2.40;;
56141;SDS011;42018;48.588;10.836;2023-09-07T08:38:00;4.40;;;2.60;;
56141;SDS011;42018;48.588;10.836;2023-09-07T08:40:48;5.70;;;2.85;;
56141;SDS011;42018;48.588;10.836;2023-09-07T08:43:35;5.30;;;2.40;;
56141;SDS011;42018;48.588;10.836;2023-09-07T08:46:30;4.93;;;2.85;;
56141;SDS011;42018;48.588;10.836;2023-09-07T08:49:17;4.55;;;2.78;;
56141;SDS011;42018;48.588;10.836;2023-09-07T08:52:06;5.70;;;2.70;;
56141;SDS011;42018;48.588;10.836;2023-09-07T08:54:52;4.47;;;2.67;;
56141;SDS011;42018;48.588;10.836;2023-09-07T08:57:39;4.82;;;2.80;;
56141;SDS011;42018;48.588;10.836;2023-09-07T09:00:24;5.93;;;2.80;;
56141;SDS011;42018;48.588;10.836;2023-09-07T09:03:10;4.18;;;2.83;;
56141;SDS011;42018;48.588;10.836;2023-09-07T09:05:56;4.82;;;2.60;;
56141;SDS011;42018;48.588;10.836;2023-09-07T09:08:42;5.40;;;2.55;;
56141;SDS011;42018;48.588;10.836;2023-09-07T09:11:28;4.20;;;2.50;;
56141;SDS011;42018;48.588;10.836;2023-09-07T09:14:16;4.90;;;2.85;;
56141;SDS011;42018;48.588;10.836;2023-09-07T09:17:03;4.40;;;2.80;;
56141;SDS011;42018;48.588;10.836;2023-09-07T09:19:49;5.55;;;2.40;;
56141;SDS011;42018;48.588;10.836;2023-09-07T09:22:35;4.78;;;2.40;;
56141;SDS011;42018;48.588;10.836;2023-09-07T09:25:21;3.90;;;2.33;;
56141;SDS011;42018;48.588;10.836;2023-09-07T09:28:08;4.93;;;2.30;;
56141;SDS011;42018;48.588;10.836;2023-09-07T09:31:00;4.45;;;2.40;;
56141;SDS011;42018;48.588;10.836;2023-09-07T09:33:48;4.22;;;2.35;;
56141;SDS011;42018;48.588;10.836;2023-09-07T09:36:36;3.90;;;2.30;;
56141;SDS011;42018;48.588;10.836;2023-09-07T09:39:23;3.80;;;2.30;;
56141;SDS011;42018;48.588;10.836;2023-09-07T09:42:09;3.88;;;2.25;;
56141;SDS011;42018;48.588;10.836;2023-09-07T09:44:57;6.05;;;2.70;;
56141;SDS011;42018;48.588;10.836;2023-09-07T09:47:43;6.10;;;2.20;;
56141;SDS011;42018;48.588;10.836;2023-09-07T09:50:29;4.30;;;2.40;;
56141;SDS011;42018;48.588;10.836;2023-09-07T09:53:15;4.15;;;2.20;;
56141;SDS011;42018;48.588;10.836;2023-09-07T09:56:03;4.63;;;2.15;;
56141;SDS011;42018;48.588;10.836;2023-09-07T09:58:49;5.13;;;2.40;;
56141;SDS011;42018;48.588;10.836;2023-09-07T10:01:43;4.65;;;2.45;;
56141;SDS011;42018;48.588;10.836;2023-09-07T10:04:30;3.90;;;2.30;;
56141;SDS011;42018;48.588;10.836;2023-09-07T10:07:18;5.30;;;2.63;;
56141;SDS011;42018;48.588;10.836;2023-09-07T10:10:07;4.18;;;2.30;;
56141;SDS011;42018;48.588;10.836;2023-09-07T10:12:55;4.30;;;2.35;;
56141;SDS011;42018;48.588;10.836;2023-09-07T10:15:40;5.50;;;2.40;;
56141;SDS011;42018;48.588;10.836;2023-09-07T10:18:32;4.85;;;2.60;;
56141;SDS011;42018;48.588;10.836;2023-09-07T10:21:25;5.00;;;2.30;;
56141;SDS011;42018;48.588;10.836;2023-09-07T10:24:11;4.38;;;2.50;;
56141;SDS011;42018;48.588;10.836;2023-09-07T10:27:09;3.55;;;2.17;;
56141;SDS011;42018;48.588;10.836;2023-09-07T10:29:56;5.25;;;2.35;;
56141;SDS011;42018;48.588;10.836;2023-09-07T10:32:41;3.70;;;2.28;;
56141;SDS011;42018;48.588;10.836;2023-09-07T10:35:27;5.68;;;2.42;;
56141;SDS011;42018;48.588;10.836;2023-09-07T10:38:20;3.92;;;2.25;;
56141;SDS011;42018;48.588;10.836;2023-09-07T10:41:06;4.63;;;2.40;;
56141;SDS011;42018;48.588;10.836;2023-09-07T10:43:52;5.53;;;2.35;;
56141;SDS011;42018;48.588;10.836;2023-09-07T10:46:39;4.75;;;2.50;;
56141;SDS011;42018;48.588;10.836;2023-09-07T10:49:25;3.85;;;2.28;;
56141;SDS011;42018;48.588;10.836;2023-09-07T10:52:11;4.22;;;2.30;;
56141;SDS011;42018;48.588;10.836;2023-09-07T10:54:56;3.47;;;2.00;;
56141;SDS011;42018;48.588;10.836;2023-09-07T10:57:45;5.18;;;2.17;;
56141;SDS011;42018;48.588;10.836;2023-09-07T11:00:32;4.05;;;2.38;;
56141;SDS011;42018;48.588;10.836;2023-09-07T11:03:17;5.60;;;2.20;;
56141;SDS011;42018;48.588;10.836;2023-09-07T11:06:04;4.13;;;2.20;;
56141;SDS011;42018;48.588;10.836;2023-09-07T11:09:00;3.80;;;2.20;;
56141;SDS011;42018;48.588;10.836;2023-09-07T11:11:48;7.82;;;2.58;;
56141;SDS011;42018;48.588;10.836;2023-09-07T11:14:34;4.82;;;2.08;;
56141;SDS011;42018;48.588;10.836;2023-09-07T11:17:25;5.05;;;2.40;;
56141;SDS011;42018;48.588;10.836;2023-09-07T11:20:11;5.13;;;2.50;;
56141;SDS011;42018;48.588;10.836;2023-09-07T11:22:57;4.40;;;2.30;;
56141;SDS011;42018;48.588;10.836;2023-09-07T11:25:42;5.32;;;2.55;;
56141;SDS011;42018;48.588;10.836;2023-09-07T11:28:31;4.85;;;2.22;;
56141;SDS011;42018;48.588;10.836;2023-09-07T11:31:19;3.80;;;2.30;;
56141;SDS011;42018;48.588;10.836;2023-09-07T11:34:11;4.63;;;2.10;;
56141;SDS011;42018;48.588;10.836;2023-09-07T11:37:02;3.38;;;2.00;;
56141;SDS011;42018;48.588;10.836;2023-09-07T11:39:48;4.13;;;2.10;;
56141;SDS011;42018;48.588;10.836;2023-09-07T11:42:33;4.57;;;2.00;;
56141;SDS011;42018;48.588;10.836;2023-09-07T11:45:19;4.28;;;2.00;;
56141;SDS011;42018;48.588;10.836;2023-09-07T11:48:05;4.00;;;2.25;;
56141;SDS011;42018;48.588;10.836;2023-09-07T11:50:51;3.95;;;2.20;;
56141;SDS011;42018;48.588;10.836;2023-09-07T11:53:36;4.47;;;1.80;;
56141;SDS011;42018;48.588;10.836;2023-09-07T11:56:22;4.13;;;2.05;;
56141;SDS011;42018;48.588;10.836;2023-09-07T11:59:07;4.03;;;2.10;;
56141;SDS011;42018;48.588;10.836;2023-09-07T12:01:53;3.53;;;1.80;;
56141;SDS011;42018;48.588;10.836;2023-09-07T12:04:43;3.85;;;2.00;;
56141;SDS011;42018;48.588;10.836;2023-09-07T12:07:29;4.28;;;1.88;;
56141;SDS011;42018;48.588;10.836;2023-09-07T12:10:16;3.53;;;1.73;;
56141;SDS011;42018;48.588;10.836;2023-09-07T12:13:02;3.40;;;1.80;;
56141;SDS011;42018;48.588;10.836;2023-09-07T12:15:51;4.13;;;1.95;;
56141;SDS011;42018;48.588;10.836;2023-09-07T12:18:39;3.55;;;1.80;;
56141;SDS011;42018;48.588;10.836;2023-09-07T12:21:27;5.28;;;1.92;;
56141;SDS011;42018;48.588;10.836;2023-09-07T12:24:12;4.18;;;1.73;;
56141;SDS011;42018;48.588;10.836;2023-09-07T12:27:01;5.13;;;2.00;;
56141;SDS011;42018;48.588;10.836;2023-09-07T12:29:46;3.90;;;1.92;;
56141;SDS011;42018;48.588;10.836;2023-09-07T12:32:34;4.28;;;2.00;;
56141;SDS011;42018;48.588;10.836;2023-09-07T12:37:56;4.15;;;1.98;;
56141;SDS011;42018;48.588;10.836;2023-09-07T12:40:44;3.80;;;2.00;;
56141;SDS011;42018;48.588;10.836;2023-09-07T12:43:29;3.97;;;1.80;;
56141;SDS011;42018;48.588;10.836;2023-09-07T12:46:14;3.50;;;1.83;;
56141;SDS011;42018;48.588;10.836;2023-09-07T12:49:00;5.15;;;1.90;;
56141;SDS011;42018;48.588;10.836;2023-09-07T12:51:48;4.20;;;2.20;;
56141;SDS011;42018;48.588;10.836;2023-09-07T12:54:34;3.65;;;1.92;;
56141;SDS011;42018;48.588;10.836;2023-09-07T12:57:21;3.30;;;1.88;;
56141;SDS011;42018;48.588;10.836;2023-09-07T13:00:07;5.13;;;1.70;;
56141;SDS011;42018;48.588;10.836;2023-09-07T13:02:53;4.65;;;1.88;;
56141;SDS011;42018;48.588;10.836;2023-09-07T13:05:38;5.00;;;2.20;;
56141;SDS011;42018;48.588;10.836;2023-09-07T13:08:24;3.83;;;2.00;;
56141;SDS011;42018;48.588;10.836;2023-09-07T13:11:10;4.15;;;1.90;;
56141;SDS011;42018;48.588;10.836;2023-09-07T13:13:55;3.35;;;1.90;;
56141;SDS011;42018;48.588;10.836;2023-09-07T13:16:44;3.58;;;1.70;;
56141;SDS011;42018;48.588;10.836;2023-09-07T13:19:29;4.72;;;2.00;;
56141;SDS011;42018;48.588;10.836;2023-09-07T13:22:15;4.22;;;1.88;;
56141;SDS011;42018;48.588;10.836;2023-09-07T13:25:02;4.60;;;2.13;;
56141;SDS011;42018;48.588;10.836;2023-09-07T13:27:47;3.88;;;1.77;;
56141;SDS011;42018;48.588;10.836;2023-09-07T13:30:33;3.90;;;1.88;;
56141;SDS011;42018;48.588;10.836;2023-09-07T13:33:18;3.20;;;1.80;;
56141;SDS011;42018;48.588;10.836;2023-09-07T13:36:04;4.28;;;1.90;;
56141;SDS011;42018;48.588;10.836;2023-09-07T13:38:49;3.90;;;2.10;;
56141;SDS011;42018;48.588;10.836;2023-09-07T13:41:35;3.67;;;2.08;;
56141;SDS011;42018;48.588;10.836;2023-09-07T13:44:23;3.55;;;1.90;;
56141;SDS011;42018;48.588;10.836;2023-09-07T13:47:09;3.20;;;1.85;;
56141;SDS011;42018;48.588;10.836;2023-09-07T13:49:54;3.90;;;1.80;;
56141;SDS011;42018;48.588;10.836;2023-09-07T13:52:39;4.38;;;2.10;;
56141;SDS011;42018;48.588;10.836;2023-09-07T13:55:25;6.18;;;2.10;;
56141;SDS011;42018;48.588;10.836;2023-09-07T13:58:10;3.00;;;1.70;;
56141;SDS011;42018;48.588;10.836;2023-09-07T14:00:56;4.57;;;1.80;;
56141;SDS011;42018;48.588;10.836;2023-09-07T14:03:41;3.95;;;2.05;;
56141;SDS011;42018;48.588;10.836;2023-09-07T14:06:27;3.83;;;1.88;;
56141;SDS011;42018;48.588;10.836;2023-09-07T14:09:12;4.55;;;1.90;;
56141;SDS011;42018;48.588;10.836;2023-09-07T14:11:59;4.75;;;2.00;;
56141;SDS011;42018;48.588;10.836;2023-09-07T14:14:44;3.60;;;2.03;;
56141;SDS011;42018;48.588;10.836;2023-09-07T14:17:29;3.85;;;2.17;;
56141;SDS011;42018;48.588;10.836;2023-09-07T14:20:15;3.75;;;1.90;;
56141;SDS011;42018;48.588;10.836;2023-09-07T14:23:00;3.65;;;1.90;;
56141;SDS011;42018;48.588;10.836;2023-09-07T14:25:46;4.57;;;1.95;;
56141;SDS011;42018;48.588;10.836;2023-09-07T14:28:32;4.00;;;2.00;;
56141;SDS011;42018;48.588;10.836;2023-09-07T14:31:17;4.65;;;2.00;;
56141;SDS011;42018;48.588;10.836;2023-09-07T14:34:02;4.18;;;1.90;;
56141;SDS011;42018;48.588;10.836;2023-09-07T14:36:48;4.38;;;2.05;;
56141;SDS011;42018;48.588;10.836;2023-09-07T14:39:33;5.55;;;2.20;;
56141;SDS011;42018;48.588;10.836;2023-09-07T14:42:20;3.47;;;2.00;;
56141;SDS011;42018;48.588;10.836;2023-09-07T14:45:06;3.40;;;1.80;;
56141;SDS011;42018;48.588;10.836;2023-09-07T14:47:51;4.82;;;2.00;;
56141;SDS011;42018;48.588;10.836;2023-09-07T14:50:37;3.78;;;2.15;;
56141;SDS011;42018;48.588;10.836;2023-09-07T14:53:23;4.15;;;1.90;;
56141;SDS011;42018;48.588;10.836;2023-09-07T14:56:08;3.55;;;1.90;;
56141;SDS011;42018;48.588;10.836;2023-09-07T14:58:53;3.90;;;1.95;;
56141;SDS011;42018;48.588;10.836;2023-09-07T15:01:39;3.85;;;1.77;;
56141;SDS011;42018;48.588;10.836;2023-09-07T15:04:24;3.83;;;2.00;;
56141;SDS011;42018;48.588;10.836;2023-09-07T15:07:10;3.42;;;1.80;;
56141;SDS011;42018;48.588;10.836;2023-09-07T15:09:56;4.45;;;1.70;;
56141;SDS011;42018;48.588;10.836;2023-09-07T15:12:41;5.38;;;1.90;;
56141;SDS011;42018;48.588;10.836;2023-09-07T15:15:26;3.85;;;2.10;;
56141;SDS011;42018;48.588;10.836;2023-09-07T15:18:12;3.63;;;2.00;;
56141;SDS011;42018;48.588;10.836;2023-09-07T15:20:57;5.32;;;1.95;;
56141;SDS011;42018;48.588;10.836;2023-09-07T15:23:42;5.13;;;1.73;;
56141;SDS011;42018;48.588;10.836;2023-09-07T15:26:28;3.67;;;2.28;;
56141;SDS011;42018;48.588;10.836;2023-09-07T15:29:14;3.97;;;2.10;;
56141;SDS011;42018;48.588;10.836;2023-09-07T15:32:00;4.30;;;2.33;;
56141;SDS011;42018;48.588;10.836;2023-09-07T15:34:45;4.38;;;2.00;;
56141;SDS011;42018;48.588;10.836;2023-09-07T15:37:30;4.00;;;1.77;;
56141;SDS011;42018;48.588;10.836;2023-09-07T15:40:16;4.25;;;2.10;;
56141;SDS011;42018;48.588;10.836;2023-09-07T15:43:01;4.55;;;2.20;;
56141;SDS011;42018;48.588;10.836;2023-09-07T15:45:46;3.60;;;1.90;;
56141;SDS011;42018;48.588;10.836;2023-09-07T15:48:32;5.07;;;2.10;;
56141;SDS011;42018;48.588;10.836;2023-09-07T15:51:18;4.50;;;2.17;;
56141;SDS011;42018;48.588;10.836;2023-09-07T15:54:03;5.55;;;2.15;;
56141;SDS011;42018;48.588;10.836;2023-09-07T15:56:50;3.53;;;1.90;;
56141;SDS011;42018;48.588;10.836;2023-09-07T15:59:35;4.57;;;2.20;;
56141;SDS011;42018;48.588;10.836;2023-09-07T16:02:20;3.58;;;2.05;;
56141;SDS011;42018;48.588;10.836;2023-09-07T16:05:06;4.90;;;1.92;;
56141;SDS011;42018;48.588;10.836;2023-09-07T16:07:52;4.20;;;2.13;;
56141;SDS011;42018;48.588;10.836;2023-09-07T16:10:38;3.83;;;1.90;;
56141;SDS011;42018;48.588;10.836;2023-09-07T16:13:24;5.43;;;2.03;;
56141;SDS011;42018;48.588;10.836;2023-09-07T16:16:10;4.20;;;2.00;;
56141;SDS011;42018;48.588;10.836;2023-09-07T16:18:56;4.03;;;1.70;;
56141;SDS011;42018;48.588;10.836;2023-09-07T16:21:41;3.65;;;1.90;;
56141;SDS011;42018;48.588;10.836;2023-09-07T16:24:26;3.78;;;2.20;;
56141;SDS011;42018;48.588;10.836;2023-09-07T16:27:12;5.75;;;2.10;;
56141;SDS011;42018;48.588;10.836;2023-09-07T16:29:57;4.00;;;2.00;;
56141;SDS011;42018;48.588;10.836;2023-09-07T16:32:42;3.60;;;2.17;;